createdAt,value
2019-03-21T00:01:38.004Z,7.60
2019-03-21T00:04:11.268Z,6.90
2019-03-21T00:06:50.601Z,7.30
2019-03-21T00:09:19.909Z,7.57
2019-03-21T00:12:14.476Z,7.33
2019-03-21T00:18:06.201Z,7.10
2019-03-21T00:20:35.412Z,7.33
2019-03-21T00:23:04.884Z,7.50
2019-03-21T00:25:43.376Z,7.50
2019-03-21T00:28:12.578Z,7.80
2019-03-21T00:30:44.569Z,6.37
2019-03-21T00:33:13.816Z,6.73
2019-03-21T00:35:43.069Z,7.23
2019-03-21T00:38:12.332Z,7.37
2019-03-21T00:40:44.009Z,7.07
2019-03-21T00:43:13.708Z,7.17
2019-03-21T00:48:29.937Z,7.70
2019-03-21T00:50:59.169Z,7.70
2019-03-21T00:53:28.658Z,6.97
2019-03-21T00:55:58.046Z,7.40
2019-03-21T00:58:27.304Z,6.70
2019-03-21T01:00:56.900Z,6.93
2019-03-21T01:03:27.792Z,7.07
2019-03-21T01:06:11.030Z,7.77
2019-03-21T01:08:41.511Z,6.87
2019-03-21T01:11:10.808Z,7.07
2019-03-21T01:13:40.042Z,6.77
2019-03-21T01:16:18.272Z,6.70
2019-03-21T01:18:50.645Z,6.57
2019-03-21T01:21:19.850Z,6.97
2019-03-21T01:23:49.050Z,6.93
2019-03-21T01:26:28.622Z,7.03
2019-03-21T01:28:57.825Z,6.43
2019-03-21T01:31:30.107Z,7.10
2019-03-21T01:33:59.330Z,6.50
2019-03-21T01:36:38.534Z,6.50
2019-03-21T01:39:08.014Z,6.37
2019-03-21T01:41:37.530Z,7.60
2019-03-21T01:44:06.781Z,7.20
2019-03-21T01:46:45.213Z,6.87
2019-03-21T01:49:14.449Z,7.30
2019-03-21T01:51:43.933Z,7.70
2019-03-21T01:54:13.174Z,7.30
2019-03-21T01:56:51.659Z,7.73
2019-03-21T01:59:20.873Z,7.77
2019-03-21T02:01:50.045Z,7.97
2019-03-21T02:04:19.584Z,7.63
2019-03-21T02:06:57.987Z,8.37
2019-03-21T02:09:27.304Z,8.43
2019-03-21T02:11:59.089Z,8.23
2019-03-21T02:14:28.296Z,7.73
2019-03-21T02:17:06.740Z,7.97
2019-03-21T02:19:35.921Z,8.33
2019-03-21T02:22:05.132Z,8.13
2019-03-21T02:24:34.652Z,7.70
2019-03-21T02:27:13.102Z,6.97
2019-03-21T02:29:42.320Z,7.67
2019-03-21T02:32:13.947Z,7.33
2019-03-21T02:34:43.174Z,6.83
2019-03-21T02:40:00.006Z,7.00
2019-03-21T02:42:28.156Z,7.20
2019-03-21T02:45:08.241Z,7.13
2019-03-21T02:47:38.974Z,7.17
2019-03-21T02:50:11.024Z,7.70
2019-03-21T02:52:40.222Z,7.90
2019-03-21T02:55:09.707Z,7.40
2019-03-21T02:57:49.558Z,7.83
2019-03-21T03:00:20.447Z,8.57
2019-03-21T03:02:50.527Z,8.00
2019-03-21T03:05:24.516Z,8.47
2019-03-21T03:08:02.768Z,8.30
2019-03-21T03:10:37.434Z,7.50
2019-03-21T03:13:06.734Z,7.23
2019-03-21T03:15:35.974Z,7.57
2019-03-21T03:18:14.300Z,8.00
2019-03-21T03:20:43.515Z,8.27
2019-03-21T03:23:12.719Z,7.33
2019-03-21T03:25:44.792Z,6.83
2019-03-21T03:28:25.488Z,6.93
2019-03-21T03:30:55.312Z,7.10
2019-03-21T03:33:25.929Z,6.87
2019-03-21T03:35:55.317Z,8.53
2019-03-21T03:38:36.345Z,7.93
2019-03-21T03:41:05.579Z,6.93
2019-03-21T03:43:34.837Z,8.70
2019-03-21T03:46:04.158Z,8.73
2019-03-21T03:48:42.671Z,7.20
2019-03-21T03:51:11.850Z,8.03
2019-03-21T03:53:42.655Z,7.73
2019-03-21T03:56:12.355Z,6.53
2019-03-21T04:01:26.781Z,6.63
2019-03-21T04:03:56.138Z,7.00
2019-03-21T04:06:25.506Z,7.63
2019-03-21T04:09:05.317Z,7.03
2019-03-21T04:11:34.744Z,7.33
2019-03-21T04:14:07.157Z,7.30
2019-03-21T04:16:36.356Z,7.13
2019-03-21T04:19:05.689Z,7.07
2019-03-21T04:21:34.915Z,7.30
2019-03-21T04:24:04.171Z,7.17
2019-03-21T04:26:33.457Z,7.37
2019-03-21T04:31:47.410Z,7.90
2019-03-21T04:34:16.649Z,7.03
2019-03-21T04:36:45.846Z,7.57
2019-03-21T04:39:27.025Z,8.47
2019-03-21T04:41:56.589Z,7.70
2019-03-21T04:44:25.813Z,7.90
2019-03-21T04:46:55.021Z,7.73
2019-03-21T04:49:33.409Z,8.03
2019-03-21T04:52:02.616Z,8.73
2019-03-21T04:54:31.918Z,8.13
2019-03-21T04:57:01.115Z,7.87
2019-03-21T04:59:42.330Z,7.50
2019-03-21T05:02:14.460Z,8.10
2019-03-21T05:04:43.807Z,7.13
2019-03-21T05:07:13.013Z,7.43
2019-03-21T05:09:56.633Z,8.47
2019-03-21T05:12:25.847Z,9.07
2019-03-21T05:14:55.081Z,8.90
2019-03-21T05:17:25.857Z,8.43
2019-03-21T05:20:04.318Z,9.20
2019-03-21T05:22:35.358Z,8.03
2019-03-21T05:25:07.726Z,7.43
2019-03-21T05:27:36.951Z,8.30
2019-03-21T05:30:08.597Z,8.07
2019-03-21T05:32:37.817Z,8.43
2019-03-21T05:35:07.423Z,9.53
2019-03-21T05:37:36.675Z,8.87
2019-03-21T05:40:15.553Z,8.70
2019-03-21T05:42:49.352Z,8.77
2019-03-21T05:45:19.118Z,7.70
2019-03-21T05:47:50.501Z,8.60
2019-03-21T05:50:29.072Z,7.67
2019-03-21T05:52:58.306Z,8.50
2019-03-21T05:55:27.586Z,7.77
2019-03-21T05:57:57.880Z,8.13
2019-03-21T06:00:51.255Z,7.83
2019-03-21T06:03:22.420Z,7.37
2019-03-21T06:05:55.835Z,8.60
2019-03-21T06:08:42.169Z,9.07
2019-03-21T06:11:11.461Z,8.70
2019-03-21T06:13:41.969Z,7.30
2019-03-21T06:16:14.919Z,8.00
2019-03-21T06:19:23.805Z,7.73
2019-03-21T06:22:04.295Z,8.13
2019-03-21T06:25:29.648Z,8.20
2019-03-21T06:27:59.230Z,7.03
2019-03-21T06:30:38.262Z,7.73
2019-03-21T06:33:07.478Z,6.53
2019-03-21T06:35:36.708Z,7.13
2019-03-21T06:38:05.914Z,10.93
2019-03-21T06:40:44.530Z,7.30
2019-03-21T06:43:23.263Z,7.10
2019-03-21T06:45:52.520Z,6.63
2019-03-21T06:48:22.044Z,6.63
2019-03-21T06:50:51.343Z,7.47
2019-03-21T06:53:29.687Z,5.63
2019-03-21T06:58:36.906Z,5.77
2019-03-21T07:01:27.341Z,6.50
2019-03-21T07:04:07.122Z,6.90
2019-03-21T07:06:30.390Z,6.73
2019-03-21T07:08:59.647Z,7.27
2019-03-21T07:11:38.003Z,6.73
2019-03-21T07:14:07.246Z,6.47
2019-03-21T07:16:36.537Z,6.83
2019-03-21T07:19:05.787Z,6.97
2019-03-21T07:21:44.206Z,6.80
2019-03-21T07:24:13.429Z,7.00
2019-03-21T07:26:42.760Z,6.40
2019-03-21T07:29:12.247Z,6.20
2019-03-21T07:31:41.513Z,5.20
2019-03-21T07:34:12.509Z,6.10
2019-03-21T07:36:42.893Z,5.73
2019-03-21T07:39:16.956Z,5.83
2019-03-21T07:41:55.791Z,6.30
2019-03-21T07:44:27.134Z,5.37
2019-03-21T07:46:56.369Z,5.90
2019-03-21T07:49:25.843Z,5.50
2019-03-21T07:52:05.414Z,5.37
2019-03-21T07:54:34.624Z,5.20
2019-03-21T07:57:04.027Z,5.70
2019-03-21T07:59:53.437Z,5.97
2019-03-21T08:02:33.744Z,5.60
2019-03-21T08:05:06.104Z,5.73
2019-03-21T08:07:35.349Z,5.90
2019-03-21T08:10:07.118Z,5.70
2019-03-21T08:12:45.595Z,5.53
2019-03-21T08:15:34.098Z,5.87
2019-03-21T08:18:05.975Z,5.10
2019-03-21T08:20:35.242Z,5.20
2019-03-21T08:23:13.638Z,4.93
2019-03-21T08:25:42.913Z,5.13
2019-03-21T08:28:14.010Z,5.47
2019-03-21T08:31:18.099Z,4.97
2019-03-21T08:33:59.348Z,4.90
2019-03-21T08:36:28.574Z,4.63
2019-03-21T08:38:57.863Z,5.77
2019-03-21T08:41:27.138Z,5.10
2019-03-21T08:44:05.448Z,4.60
2019-03-21T08:46:37.789Z,4.97
2019-03-21T08:49:07.017Z,4.97
2019-03-21T08:51:36.408Z,5.30
2019-03-21T08:54:14.839Z,4.77
2019-03-21T08:56:44.137Z,4.87
2019-03-21T08:59:13.564Z,5.03
2019-03-21T09:01:42.844Z,4.77
2019-03-21T09:04:13.311Z,4.63
2019-03-21T09:06:43.089Z,4.40
2019-03-21T09:09:14.436Z,3.80
2019-03-21T09:11:43.669Z,3.50
2019-03-21T09:14:25.022Z,4.10
2019-03-21T09:16:54.311Z,3.55
2019-03-21T09:19:23.582Z,3.50
2019-03-21T09:21:53.427Z,4.10
2019-03-21T09:24:34.627Z,3.70
2019-03-21T09:27:03.969Z,4.25
2019-03-21T09:29:34.505Z,4.45
2019-03-21T09:32:28.057Z,4.12
2019-03-21T09:35:07.224Z,3.87
2019-03-21T09:37:58.561Z,4.00
2019-03-21T09:40:27.801Z,4.10
2019-03-21T09:43:06.164Z,4.40
2019-03-21T09:45:35.473Z,3.75
2019-03-21T09:48:07.210Z,3.10
2019-03-21T09:50:36.842Z,3.65
2019-03-21T09:53:15.244Z,3.70
2019-03-21T09:55:44.482Z,4.25
2019-03-21T09:58:13.958Z,3.95
2019-03-21T10:00:43.209Z,3.35
2019-03-21T10:03:21.824Z,3.52
2019-03-21T10:05:51.121Z,3.98
2019-03-21T10:08:23.939Z,3.50
2019-03-21T10:10:53.484Z,3.67
2019-03-21T10:13:43.134Z,4.50
2019-03-21T10:16:14.485Z,3.62
2019-03-21T10:18:43.959Z,4.42
2019-03-21T10:21:42.738Z,3.72
2019-03-21T10:24:13.665Z,5.22
2019-03-21T10:26:42.897Z,3.37
2019-03-21T10:29:13.772Z,3.75
2019-03-21T10:31:42.986Z,3.80
2019-03-21T10:34:21.336Z,3.58
2019-03-21T10:36:50.586Z,3.42
2019-03-21T10:39:21.401Z,3.92
2019-03-21T10:41:50.708Z,3.58
2019-03-21T10:44:29.247Z,3.27
2019-03-21T10:46:58.488Z,3.05
2019-03-21T10:49:27.738Z,3.47
2019-03-21T10:51:57.151Z,4.03
2019-03-21T10:54:56.209Z,3.50
2019-03-21T10:57:28.487Z,3.67
2019-03-21T10:59:57.773Z,3.50
2019-03-21T11:02:27.098Z,3.17
2019-03-21T11:05:06.253Z,3.20
2019-03-21T11:07:35.497Z,3.40
2019-03-21T11:10:06.344Z,3.50
2019-03-21T11:12:35.574Z,4.17
2019-03-21T11:17:49.612Z,3.52
2019-03-21T11:20:29.889Z,3.30
2019-03-21T11:23:21.254Z,3.72
2019-03-21T11:25:59.502Z,3.60
2019-03-21T11:28:51.467Z,3.87
2019-03-21T11:31:20.721Z,3.58
2019-03-21T11:34:05.231Z,3.90
2019-03-21T11:36:38.491Z,3.20
2019-03-21T11:39:08.282Z,3.30
2019-03-21T11:41:37.496Z,3.50
2019-03-21T11:44:15.853Z,3.80
2019-03-21T11:46:45.041Z,3.50
2019-03-21T11:49:14.271Z,4.00
2019-03-21T11:51:43.506Z,3.42
2019-03-21T11:54:21.961Z,3.22
2019-03-21T11:56:51.226Z,3.50
2019-03-21T11:59:23.575Z,2.45
2019-03-21T12:01:52.785Z,2.05
2019-03-21T12:04:31.013Z,3.00
2019-03-21T12:07:00.219Z,2.50
2019-03-21T12:09:49.744Z,2.42
2019-03-21T12:12:20.665Z,2.40
2019-03-21T12:14:59.069Z,2.37
2019-03-21T12:17:28.336Z,2.05
2019-03-21T12:19:57.572Z,2.00
2019-03-21T12:22:30.246Z,2.55
2019-03-21T12:25:08.102Z,2.92
2019-03-21T12:27:37.709Z,2.83
2019-03-21T12:30:07.526Z,2.85
2019-03-21T12:32:36.782Z,2.72
2019-03-21T12:35:14.985Z,2.37
2019-03-21T12:37:44.194Z,2.37
2019-03-21T12:40:13.529Z,2.70
2019-03-21T12:42:42.848Z,2.30
2019-03-21T12:45:21.841Z,2.80
2019-03-21T12:47:51.349Z,2.60
2019-03-21T12:50:20.681Z,2.20
2019-03-21T12:52:50.262Z,2.15
2019-03-21T12:58:03.877Z,2.35
2019-03-21T13:00:43.211Z,2.12
2019-03-21T13:03:14.982Z,2.33
2019-03-21T13:05:53.872Z,2.35
2019-03-21T13:08:34.062Z,2.40
2019-03-21T13:11:03.466Z,2.60
2019-03-21T13:13:32.705Z,2.33
2019-03-21T13:16:14.091Z,2.12
2019-03-21T13:22:14.105Z,2.20
2019-03-21T13:24:43.354Z,2.10
2019-03-21T13:27:21.877Z,1.75
2019-03-21T13:29:51.127Z,1.82
2019-03-21T13:32:20.415Z,1.60
2019-03-21T13:34:51.766Z,1.63
2019-03-21T13:37:32.272Z,1.63
2019-03-21T13:40:01.117Z,1.80
2019-03-21T13:42:30.630Z,2.13
2019-03-21T13:44:59.878Z,2.03
2019-03-21T13:50:13.740Z,1.83
2019-03-21T13:52:43.797Z,1.77
2019-03-21T13:55:13.090Z,1.80
2019-03-21T13:57:51.427Z,1.87
2019-03-21T14:00:23.673Z,2.10
2019-03-21T14:02:52.849Z,1.87
2019-03-21T14:05:22.049Z,1.63
2019-03-21T14:10:38.145Z,1.70
2019-03-21T14:13:07.358Z,2.00
2019-03-21T14:15:51.940Z,2.27
2019-03-21T14:18:21.181Z,1.83
2019-03-21T14:20:53.661Z,1.83
2019-03-21T14:23:22.946Z,1.97
2019-03-21T14:26:01.063Z,1.87
2019-03-21T14:28:38.728Z,2.00
2019-03-21T14:31:32.378Z,2.03
2019-03-21T14:34:03.973Z,1.60
2019-03-21T14:36:42.150Z,1.80
2019-03-21T14:39:12.107Z,1.50
2019-03-21T14:41:43.546Z,1.40
2019-03-21T14:44:13.001Z,1.63
2019-03-21T14:49:28.373Z,1.40
2019-03-21T14:51:57.614Z,1.50
2019-03-21T14:54:28.796Z,1.50
2019-03-21T14:57:10.298Z,1.83
2019-03-21T14:59:41.830Z,2.13
2019-03-21T15:02:14.154Z,1.73
2019-03-21T15:04:43.905Z,1.53
2019-03-21T15:10:07.965Z,1.80
2019-03-21T15:12:37.256Z,1.97
2019-03-21T15:15:08.083Z,1.80
2019-03-21T15:17:58.793Z,1.80
2019-03-21T15:20:28.135Z,1.70
2019-03-21T15:22:59.768Z,1.70
2019-03-21T15:25:29.262Z,2.17
2019-03-21T15:28:08.806Z,1.77
2019-03-21T15:30:41.344Z,1.70
2019-03-21T15:33:12.146Z,1.77
2019-03-21T15:35:43.884Z,1.63
2019-03-21T15:38:28.207Z,1.60
2019-03-21T15:40:58.430Z,1.90
2019-03-21T15:43:30.710Z,1.80
2019-03-21T15:46:00.178Z,1.77
2019-03-21T15:48:38.836Z,1.87
2019-03-21T15:51:08.408Z,1.90
2019-03-21T15:53:38.055Z,2.13
2019-03-21T15:56:07.508Z,1.83
2019-03-21T15:58:37.032Z,2.27
2019-03-21T16:01:06.560Z,1.73
2019-03-21T16:03:36.931Z,1.83
2019-03-21T16:06:06.458Z,2.03
2019-03-21T16:08:45.065Z,1.80
2019-03-21T16:11:14.550Z,1.80
2019-03-21T16:13:43.909Z,2.13
2019-03-21T16:16:15.878Z,1.70
2019-03-21T16:19:05.668Z,1.90
2019-03-21T16:21:36.980Z,2.03
2019-03-21T16:24:08.203Z,1.97
2019-03-21T16:26:41.349Z,1.83
2019-03-21T16:29:22.350Z,1.70
2019-03-21T16:31:56.845Z,1.77
2019-03-21T16:34:29.036Z,1.90
2019-03-21T16:36:58.920Z,1.50
2019-03-21T16:39:37.388Z,1.80
2019-03-21T16:42:13.720Z,1.60
2019-03-21T16:53:22.895Z,1.80
2019-03-21T16:55:52.585Z,1.90
2019-03-21T16:58:30.969Z,1.80
2019-03-21T17:01:14.177Z,1.60
2019-03-21T17:03:43.595Z,1.80
2019-03-21T17:06:15.634Z,1.60
2019-03-21T17:08:48.697Z,1.87
2019-03-21T17:25:20.641Z,1.97
2019-03-21T17:28:10.321Z,2.00
2019-03-21T17:30:40.002Z,1.87
2019-03-21T17:33:09.402Z,1.70
2019-03-21T17:50:29.250Z,2.43
2019-03-21T17:52:58.740Z,1.80
2019-03-21T17:55:28.349Z,2.17
2019-03-21T17:58:07.092Z,2.10
2019-03-21T18:00:36.884Z,2.30
2019-03-21T18:03:27.839Z,2.40
2019-03-21T18:06:20.214Z,2.07
2019-03-21T18:08:51.927Z,1.87
2019-03-21T18:11:21.331Z,2.13
2019-03-21T18:13:54.742Z,2.27
2019-03-21T18:16:53.620Z,2.27
2019-03-21T18:19:10.387Z,2.27
2019-03-21T18:27:38.314Z,2.13
2019-03-21T18:30:22.090Z,1.97
2019-03-21T18:32:51.358Z,1.70
2019-03-21T18:36:06.255Z,2.00
2019-03-21T18:38:57.415Z,2.30
2019-03-21T18:41:16.997Z,2.33
2019-03-21T18:43:49.002Z,2.10
2019-03-21T18:46:25.813Z,2.43
2019-03-21T18:49:15.251Z,2.93
2019-03-21T18:51:51.390Z,3.30
2019-03-21T18:54:44.249Z,3.93
2019-03-21T19:01:57.606Z,3.70
2019-03-21T19:03:32.520Z,2.83
2019-03-21T19:06:05.221Z,3.00
2019-03-21T19:08:49.797Z,5.73
2019-03-21T19:14:13.892Z,5.27
2019-03-21T19:17:06.448Z,4.70
2019-03-21T19:19:53.676Z,5.20
2019-03-21T19:22:27.853Z,5.60
2019-03-21T19:25:04.835Z,5.00
2019-03-21T19:27:34.133Z,5.23
2019-03-21T19:30:13.016Z,5.67
2019-03-21T19:32:43.477Z,6.23
2019-03-21T19:35:12.895Z,6.00
2019-03-21T19:37:42.181Z,5.53
2019-03-21T19:42:56.172Z,5.63
2019-03-21T19:45:27.140Z,6.10
2019-03-21T19:47:56.569Z,5.20
2019-03-21T19:50:37.520Z,3.40
2019-03-21T19:53:08.260Z,4.40
2019-03-21T19:55:38.773Z,4.20
2019-03-21T19:58:15.483Z,3.40
2019-03-21T20:03:21.514Z,3.20
2019-03-21T20:05:59.913Z,3.50
2019-03-21T20:08:24.935Z,3.30
2019-03-21T20:11:39.107Z,3.00
2019-03-21T20:14:12.087Z,3.20
2019-03-21T20:16:42.967Z,3.10
2019-03-21T20:22:18.475Z,3.67
2019-03-21T20:24:48.126Z,3.60
2019-03-21T20:27:19.186Z,3.60
2019-03-21T20:29:57.875Z,3.43
2019-03-21T20:32:27.175Z,2.90
2019-03-21T20:34:56.492Z,3.50
2019-03-21T20:37:25.768Z,3.60
2019-03-21T20:40:06.454Z,3.40
2019-03-21T20:42:35.696Z,3.30
2019-03-21T20:45:05.685Z,4.00
2019-03-21T20:47:35.297Z,3.57
2019-03-21T20:50:13.755Z,4.00
2019-03-21T20:53:10.758Z,3.70
2019-03-21T20:55:41.068Z,5.97
2019-03-21T20:58:48.738Z,3.93
2019-03-21T21:05:07.993Z,4.83
2019-03-21T21:07:42.983Z,4.23
2019-03-21T21:10:21.682Z,4.40
2019-03-21T21:12:53.907Z,4.40
2019-03-21T21:15:23.332Z,4.57
2019-03-21T21:18:18.793Z,4.33
2019-03-21T21:21:00.093Z,4.63
2019-03-21T21:23:29.321Z,4.67
2019-03-21T21:26:20.084Z,4.47
2019-03-21T21:29:06.750Z,4.80
2019-03-21T21:31:45.232Z,4.47
2019-03-21T21:34:18.951Z,4.30
2019-03-21T21:37:04.636Z,4.33
2019-03-21T21:39:34.390Z,4.13
2019-03-21T21:42:12.588Z,4.77
2019-03-21T21:44:42.002Z,4.30
2019-03-21T21:47:11.404Z,4.33
2019-03-21T21:49:42.425Z,4.53
2019-03-21T21:52:23.122Z,4.87
2019-03-21T21:54:52.368Z,4.80
2019-03-21T21:57:21.892Z,4.17
2019-03-21T21:59:53.057Z,4.47
2019-03-21T22:03:19.920Z,4.83
2019-03-21T22:06:13.243Z,4.83
2019-03-21T22:08:43.478Z,4.83
2019-03-21T22:11:21.818Z,4.80
2019-03-21T22:13:51.045Z,4.50
2019-03-21T22:16:20.274Z,4.67
2019-03-21T22:18:49.520Z,4.43
2019-03-21T22:21:28.087Z,5.10
2019-03-21T22:23:57.384Z,5.83
2019-03-21T22:26:29.910Z,5.10
2019-03-21T22:28:58.879Z,6.47
2019-03-21T22:31:37.038Z,7.23
2019-03-21T22:34:06.286Z,6.77
2019-03-21T22:36:48.883Z,7.20
2019-03-21T22:39:09.653Z,7.07
2019-03-21T22:41:48.079Z,6.77
2019-03-21T22:44:17.297Z,7.53
2019-03-21T22:46:46.813Z,7.47
2019-03-21T22:49:16.306Z,8.37
2019-03-21T22:51:55.908Z,9.47
2019-03-21T22:54:25.278Z,10.67
2019-03-21T22:56:54.524Z,8.33
2019-03-21T22:59:23.769Z,8.70
2019-03-21T23:02:03.689Z,7.67
2019-03-21T23:04:33.125Z,8.00
2019-03-21T23:07:03.433Z,8.47
2019-03-21T23:09:34.340Z,9.60
2019-03-21T23:12:12.641Z,8.80
2019-03-21T23:14:41.949Z,7.57
2019-03-21T23:17:13.479Z,7.30
2019-03-21T23:19:45.068Z,7.60
2019-03-21T23:22:23.545Z,7.07
2019-03-21T23:24:52.799Z,7.43
2019-03-21T23:27:22.401Z,8.20
2019-03-21T23:29:51.637Z,9.13
2019-03-21T23:32:29.965Z,8.40
2019-03-21T23:34:59.200Z,9.17
2019-03-21T23:37:28.540Z,8.20
2019-03-21T23:39:58.166Z,7.90
2019-03-21T23:42:36.686Z,8.07
2019-03-21T23:45:09.200Z,8.13
2019-03-21T23:47:38.489Z,8.03
2019-03-21T23:50:08.222Z,7.37
2019-03-21T23:52:46.913Z,7.50
2019-03-21T23:55:16.123Z,6.73
2019-03-21T23:57:45.368Z,6.73
